Flight Track Log - Related Links

Times and Time Zones

All times are in EDT time to prevent confusion due to time zone crossing. See the N1DH flight status page for this flight to view local times or setup timezone preferences in your user account.


Time Position Orientation Groundspeed Altitude Reporting Facility
EDT Latitude Longitude Course Direction KTS MPH feet Rate Location/Type
Fri 02:52:32 PM 33.9000 -118.4833 90° East 263 303 5,000  Level Southern California TRACON
Fri 02:53:32 PM 33.8167 -118.5167 198° South 281 323 6,000 1,212 Climbing Southern California TRACON
Fri 02:54:11 PM 33.7831 -118.5172 181° South 280 322 7,000 1,307 Climbing Los Angeles Center
Fri 02:55:13 PM 33.7097 -118.4903 163° South 288 331 8,200 2,613 Climbing Los Angeles Center
Fri 02:56:15 PM 33.6619 -118.3900 120° Southeast 298 343 12,400 3,484 Climbing Los Angeles Center
Fri 02:57:00 PM 33.6717 -118.4467 101° East  Level FlightAware Approximate
Fri 02:57:17 PM 33.6433 -118.2789 101° East 348 400 15,400  Level Los Angeles Center
Fri 02:58:00 PM 33.6333 -118.3282 90° East  Level FlightAware Approximate
Fri 02:58:19 PM 33.6450 -118.1583 89° East 367 422 17,800  Level Los Angeles Center
Fri 02:59:21 PM 33.6447 -117.9961 90° East 409 471 20,700 2,323 Climbing Los Angeles Center
Fri 03:00:23 PM 33.6442 -117.8522 90° East 431 496 22,600 1,887 Climbing Los Angeles Center
Fri 03:01:25 PM 33.6431 -117.7025 90° East 447 514 24,600 1,790 Climbing Los Angeles Center
Fri 03:02:27 PM 33.6436 -117.5458 90° East 467 537 26,300 1,584 Climbing Los Angeles Center
Fri 03:03:30 PM 33.6419 -117.3858 91° East 480 552 27,900 1,344 Climbing Los Angeles Center
Fri 03:04:32 PM 33.6408 -117.2250 90° East 482 555 29,100 1,065 Climbing Los Angeles Center
Fri 03:05:34 PM 33.6392 -117.0244 91° East 500 575 30,100 1,113 Climbing Los Angeles Center
Fri 03:06:36 PM 33.6375 -116.8564 91° East 506 582 31,400 1,015 Climbing Los Angeles Center
Fri 03:07:50 PM 33.6358 -116.6933 91° East 502 578 32,400 706 Climbing Los Angeles Center
Fri 03:08:52 PM 33.6325 -116.4897 91° East 507 583 33,000 288 Climbing Los Angeles Center
Fri 03:09:55 PM 33.6303 -116.3139 91° East 524 603 33,000  Level Los Angeles Center
Fri 03:10:57 PM 33.6264 -116.1031 91° East 524 603 33,000  Level Los Angeles Center
Fri 03:11:59 PM 33.6228 -115.9269 91° East 526 605 33,000  Level Los Angeles Center
Fri 03:13:01 PM 33.6200 -115.7525 91° East 522 601 33,000  Level Los Angeles Center
Fri 03:14:03 PM 33.6164 -115.5756 91° East 528 608 33,000  Level Los Angeles Center
Fri 03:15:05 PM 33.6108 -115.3975 92° East 532 612 33,000  Level Los Angeles Center
Fri 03:16:07 PM 33.6067 -115.2214 92° East 529 609 33,000  Level Los Angeles Center
Fri 03:17:09 PM 33.6003 -115.0103 92° East 528 608 33,000 -192 Level Los Angeles Center
Fri 03:18:12 PM 33.5969 -114.8328 91° East 531 611 32,600 -1,488 Descending Los Angeles Center
Fri 03:19:14 PM 33.5769 -114.6603 98° East 525 604 29,900 -2,667 Descending Los Angeles Center
Fri 03:20:00 PM 33.5517 -114.5294 103° East 528 608 27,800 -2,722 Descending Albuquerque Center
Fri 03:21:02 PM 33.5192 -114.3594 103° East 528 608 25,000 -1,839 Descending Albuquerque Center
Fri 03:22:04 PM 33.4864 -114.2006 104° East 501 577 24,000 -488 Descending Albuquerque Center
Fri 03:23:05 PM 33.4656 -114.0344 99° East 504 580 24,000 -244 Level Albuquerque Center
Fri 03:24:07 PM 33.4792 -113.8692 84° East 502 578 23,500 -1,355 Descending Albuquerque Center
Fri 03:25:09 PM 33.5089 -113.6742 80° East 497 572 21,200 -2,177 Descending Albuquerque Center
Fri 03:26:11 PM 33.5317 -113.5144 80° East 490 564 19,000 -2,079 Descending Albuquerque Center
Fri 03:27:16 PM 33.5558 -113.3431 80° East 486 559 16,800 -2,131 Descending Albuquerque Center
Fri 03:27:58 PM 33.5744 -113.2267 79° East 470 541 15,200 -2,034 Descending Albuquerque Center
Fri 03:28:15 PM 33.5767 -113.1992 84° East 480 552 14,800 -1,869 Descending Albuquerque Center
Fri 03:28:59 PM 33.5922 -113.0822 81° East 455 524 13,300 -1,967 Descending Albuquerque Center
Fri 03:29:16 PM 33.5967 -113.0500 81° East 465 535 12,800 -2,000 Descending Albuquerque Center
Fri 03:29:59 PM 33.6125 -112.9397 80° East 445 512 11,300 -1,839 Descending Albuquerque Center
Fri 03:30:18 PM 33.6172 -112.9078 80° East 449 517 10,900 -295 Descending Albuquerque Center
Fri 03:31:00 PM 33.6533 -112.8200 64° Northeast 329 379 11,000  Climbing Albuquerque Center
Fri 03:31:20 PM 33.6653 -112.7900 64° Northeast 332 382 10,900 -787 Descending Albuquerque Center
Fri 03:32:01 PM 33.6914 -112.7317 62° Northeast 306 352 10,200 -1,258 Descending Albuquerque Center
Fri 03:32:22 PM 33.7042 -112.6933 68° East 303 349 9,600 -1,200 Descending Albuquerque Center
Fri 03:33:01 PM 33.7269 -112.6436 61° Northeast 298 343 9,000 -1,065 Descending Albuquerque Center
Fri 03:33:24 PM 33.7400 -112.6061 67° East 295 339 8,500 -1,377 Descending Albuquerque Center
Fri 03:34:02 PM 33.7628 -112.5553 62° Northeast 285 328 7,600 -1,548 Descending Albuquerque Center
Fri 03:34:26 PM 33.7747 -112.5219 67° East 285 328 6,900 -1,129 Descending Albuquerque Center
Fri 03:35:27 PM 33.8036 -112.4342 68° East 267 307 6,000 -439 Descending Albuquerque Center
Fri 03:36:29 PM 33.8000 -112.3447 93° East 268 308 6,000  Level Albuquerque Center
Fri 03:37:31 PM 33.7961 -112.2556 93° East 267 307 6,000 -48 Level Albuquerque Center
Fri 03:38:33 PM 33.7769 -112.1633 104° East 265 305 5,900 -290 Descending Albuquerque Center
Fri 03:39:35 PM 33.7364 -112.0983 127° Southeast 250 288 5,400 -532 Descending Albuquerque Center
Fri 03:40:37 PM 33.6900 -112.0389 133° Southeast 228 262 4,800 -683 Descending Albuquerque Center
Fri 03:41:38 PM 33.6497 -111.9939 137° Southeast 202 232 4,000 -1,073 Descending Albuquerque Center
Fri 03:42:40 PM 33.6094 -111.9661 150° Southeast 170 196 2,600 -968 Descending Albuquerque Center
Fri 03:43:42 PM 33.5953 -111.9303 115° Southeast 148 170 2,000 -581 Descending Albuquerque Center

Login

Don't have an account? Register now (free) for customized features, flight alerts, and more!